sensor_id;sensor_type;location;lat;lon;timestamp;P1;durP1;ratioP1;P2;durP2;ratioP2
8397;SDS011;4236;54.504;9.588;2022-10-18T00:00:44;43.60;;;39.20;;
8397;SDS011;4236;54.504;9.588;2022-10-18T00:03:13;49.47;;;41.40;;
8397;SDS011;4236;54.504;9.588;2022-10-18T00:05:40;41.93;;;38.10;;
8397;SDS011;4236;54.504;9.588;2022-10-18T00:08:08;47.27;;;42.20;;
8397;SDS011;4236;54.504;9.588;2022-10-18T00:10:35;44.23;;;40.10;;
8397;SDS011;4236;54.504;9.588;2022-10-18T00:13:04;47.10;;;40.70;;
8397;SDS011;4236;54.504;9.588;2022-10-18T00:15:32;43.70;;;39.13;;
8397;SDS011;4236;54.504;9.588;2022-10-18T00:18:00;43.27;;;39.07;;
8397;SDS011;4236;54.504;9.588;2022-10-18T00:20:29;52.30;;;40.70;;
8397;SDS011;4236;54.504;9.588;2022-10-18T00:22:56;45.40;;;40.70;;
8397;SDS011;4236;54.504;9.588;2022-10-18T00:25:24;43.53;;;39.53;;
8397;SDS011;4236;54.504;9.588;2022-10-18T00:27:52;43.73;;;39.50;;
8397;SDS011;4236;54.504;9.588;2022-10-18T00:30:21;44.80;;;40.10;;
8397;SDS011;4236;54.504;9.588;2022-10-18T00:32:48;44.77;;;40.27;;
8397;SDS011;4236;54.504;9.588;2022-10-18T00:35:16;44.23;;;39.83;;
8397;SDS011;4236;54.504;9.588;2022-10-18T00:37:44;44.17;;;39.67;;
8397;SDS011;4236;54.504;9.588;2022-10-18T00:40:11;44.27;;;39.10;;
8397;SDS011;4236;54.504;9.588;2022-10-18T00:42:39;45.13;;;40.27;;
8397;SDS011;4236;54.504;9.588;2022-10-18T00:45:17;45.50;;;40.70;;
8397;SDS011;4236;54.504;9.588;2022-10-18T00:47:49;45.60;;;38.53;;
8397;SDS011;4236;54.504;9.588;2022-10-18T00:50:20;54.70;;;40.23;;
8397;SDS011;4236;54.504;9.588;2022-10-18T00:52:50;52.13;;;39.90;;
8397;SDS011;4236;54.504;9.588;2022-10-18T00:55:20;45.27;;;40.43;;
8397;SDS011;4236;54.504;9.588;2022-10-18T00:57:48;44.20;;;39.80;;
8397;SDS011;4236;54.504;9.588;2022-10-18T01:00:16;43.50;;;39.00;;
8397;SDS011;4236;54.504;9.588;2022-10-18T01:02:44;42.10;;;38.10;;
8397;SDS011;4236;54.504;9.588;2022-10-18T01:05:15;48.13;;;41.53;;
8397;SDS011;4236;54.504;9.588;2022-10-18T01:10:39;44.67;;;40.27;;
8397;SDS011;4236;54.504;9.588;2022-10-18T01:13:16;57.07;;;41.47;;
8397;SDS011;4236;54.504;9.588;2022-10-18T01:15:54;45.07;;;40.80;;
8397;SDS011;4236;54.504;9.588;2022-10-18T01:18:26;41.50;;;38.00;;
8397;SDS011;4236;54.504;9.588;2022-10-18T01:21:03;46.90;;;41.07;;
8397;SDS011;4236;54.504;9.588;2022-10-18T01:23:50;42.97;;;38.90;;
8397;SDS011;4236;54.504;9.588;2022-10-18T01:26:35;45.10;;;40.57;;
8397;SDS011;4236;54.504;9.588;2022-10-18T01:29:16;44.07;;;39.50;;
8397;SDS011;4236;54.504;9.588;2022-10-18T01:31:57;44.83;;;40.10;;
8397;SDS011;4236;54.504;9.588;2022-10-18T01:34:30;45.57;;;40.97;;
8397;SDS011;4236;54.504;9.588;2022-10-18T01:37:00;52.83;;;40.53;;
8397;SDS011;4236;54.504;9.588;2022-10-18T01:39:31;44.30;;;40.00;;
8397;SDS011;4236;54.504;9.588;2022-10-18T01:42:02;43.87;;;39.07;;
8397;SDS011;4236;54.504;9.588;2022-10-18T01:44:34;44.70;;;40.50;;
8397;SDS011;4236;54.504;9.588;2022-10-18T01:47:06;43.17;;;39.13;;
8397;SDS011;4236;54.504;9.588;2022-10-18T01:49:36;42.53;;;38.27;;
8397;SDS011;4236;54.504;9.588;2022-10-18T01:52:04;43.27;;;38.83;;
8397;SDS011;4236;54.504;9.588;2022-10-18T01:54:34;46.63;;;38.80;;
8397;SDS011;4236;54.504;9.588;2022-10-18T01:57:05;41.57;;;37.77;;
8397;SDS011;4236;54.504;9.588;2022-10-18T01:59:44;44.97;;;38.70;;
8397;SDS011;4236;54.504;9.588;2022-10-18T02:02:22;44.93;;;40.10;;
8397;SDS011;4236;54.504;9.588;2022-10-18T02:05:04;42.33;;;38.13;;
8397;SDS011;4236;54.504;9.588;2022-10-18T02:07:41;42.87;;;38.60;;
8397;SDS011;4236;54.504;9.588;2022-10-18T02:10:37;42.93;;;38.90;;
8397;SDS011;4236;54.504;9.588;2022-10-18T02:13:09;41.30;;;37.33;;
8397;SDS011;4236;54.504;9.588;2022-10-18T02:15:41;41.30;;;37.27;;
8397;SDS011;4236;54.504;9.588;2022-10-18T02:18:15;41.90;;;37.40;;
8397;SDS011;4236;54.504;9.588;2022-10-18T02:20:46;43.83;;;39.20;;
8397;SDS011;4236;54.504;9.588;2022-10-18T02:23:14;41.83;;;37.43;;
8397;SDS011;4236;54.504;9.588;2022-10-18T02:25:47;42.07;;;37.23;;
8397;SDS011;4236;54.504;9.588;2022-10-18T02:28:14;50.93;;;38.90;;
8397;SDS011;4236;54.504;9.588;2022-10-18T02:30:43;41.00;;;36.90;;
8397;SDS011;4236;54.504;9.588;2022-10-18T02:33:18;42.57;;;38.33;;
8397;SDS011;4236;54.504;9.588;2022-10-18T02:35:55;40.83;;;36.97;;
8397;SDS011;4236;54.504;9.588;2022-10-18T02:38:29;41.67;;;37.13;;
8397;SDS011;4236;54.504;9.588;2022-10-18T02:40:58;43.27;;;38.23;;
8397;SDS011;4236;54.504;9.588;2022-10-18T02:43:26;40.00;;;35.97;;
8397;SDS011;4236;54.504;9.588;2022-10-18T02:45:53;42.50;;;38.17;;
8397;SDS011;4236;54.504;9.588;2022-10-18T02:48:22;40.53;;;36.60;;
8397;SDS011;4236;54.504;9.588;2022-10-18T02:50:50;40.47;;;36.37;;
8397;SDS011;4236;54.504;9.588;2022-10-18T02:53:17;42.23;;;37.83;;
8397;SDS011;4236;54.504;9.588;2022-10-18T02:55:45;41.67;;;37.37;;
8397;SDS011;4236;54.504;9.588;2022-10-18T02:58:12;43.87;;;36.60;;
8397;SDS011;4236;54.504;9.588;2022-10-18T03:00:40;39.60;;;35.40;;
8397;SDS011;4236;54.504;9.588;2022-10-18T03:03:08;41.00;;;36.87;;
8397;SDS011;4236;54.504;9.588;2022-10-18T03:05:37;46.80;;;36.70;;
8397;SDS011;4236;54.504;9.588;2022-10-18T03:08:04;39.70;;;36.00;;
8397;SDS011;4236;54.504;9.588;2022-10-18T03:10:32;39.97;;;35.87;;
8397;SDS011;4236;54.504;9.588;2022-10-18T03:13:00;40.90;;;36.63;;
8397;SDS011;4236;54.504;9.588;2022-10-18T03:15:27;39.93;;;35.57;;
8397;SDS011;4236;54.504;9.588;2022-10-18T03:17:55;40.47;;;36.83;;
8397;SDS011;4236;54.504;9.588;2022-10-18T03:20:22;41.77;;;37.43;;
8397;SDS011;4236;54.504;9.588;2022-10-18T03:22:51;39.27;;;35.43;;
8397;SDS011;4236;54.504;9.588;2022-10-18T03:25:19;40.43;;;36.20;;
8397;SDS011;4236;54.504;9.588;2022-10-18T03:27:46;38.87;;;35.53;;
8397;SDS011;4236;54.504;9.588;2022-10-18T03:30:14;41.53;;;37.10;;
8397;SDS011;4236;54.504;9.588;2022-10-18T03:32:41;40.73;;;36.60;;
8397;SDS011;4236;54.504;9.588;2022-10-18T03:35:09;37.97;;;34.17;;
8397;SDS011;4236;54.504;9.588;2022-10-18T03:37:37;39.93;;;34.87;;
8397;SDS011;4236;54.504;9.588;2022-10-18T03:40:06;46.20;;;37.17;;
8397;SDS011;4236;54.504;9.588;2022-10-18T03:42:35;41.87;;;37.43;;
8397;SDS011;4236;54.504;9.588;2022-10-18T03:45:02;41.33;;;37.17;;
8397;SDS011;4236;54.504;9.588;2022-10-18T03:47:30;43.67;;;36.67;;
8397;SDS011;4236;54.504;9.588;2022-10-18T03:49:58;47.33;;;37.43;;
8397;SDS011;4236;54.504;9.588;2022-10-18T03:52:26;40.27;;;36.07;;
8397;SDS011;4236;54.504;9.588;2022-10-18T03:54:53;42.90;;;37.40;;
8397;SDS011;4236;54.504;9.588;2022-10-18T03:57:22;53.23;;;39.60;;
8397;SDS011;4236;54.504;9.588;2022-10-18T03:59:50;51.43;;;39.30;;
8397;SDS011;4236;54.504;9.588;2022-10-18T04:02:18;47.00;;;38.27;;
8397;SDS011;4236;54.504;9.588;2022-10-18T04:04:45;43.90;;;38.50;;
8397;SDS011;4236;54.504;9.588;2022-10-18T04:07:13;41.83;;;37.03;;
8397;SDS011;4236;54.504;9.588;2022-10-18T04:09:40;46.60;;;38.87;;
8397;SDS011;4236;54.504;9.588;2022-10-18T04:12:08;42.40;;;37.80;;
8397;SDS011;4236;54.504;9.588;2022-10-18T04:14:37;41.33;;;37.33;;
8397;SDS011;4236;54.504;9.588;2022-10-18T04:17:05;44.00;;;38.90;;
8397;SDS011;4236;54.504;9.588;2022-10-18T04:19:32;45.40;;;40.60;;
8397;SDS011;4236;54.504;9.588;2022-10-18T04:22:00;60.53;;;43.77;;
8397;SDS011;4236;54.504;9.588;2022-10-18T04:24:27;51.20;;;44.00;;
8397;SDS011;4236;54.504;9.588;2022-10-18T04:26:55;46.60;;;42.10;;
8397;SDS011;4236;54.504;9.588;2022-10-18T04:29:22;54.63;;;42.20;;
8397;SDS011;4236;54.504;9.588;2022-10-18T04:31:51;52.80;;;43.33;;
8397;SDS011;4236;54.504;9.588;2022-10-18T04:34:19;57.97;;;43.60;;
8397;SDS011;4236;54.504;9.588;2022-10-18T04:36:47;49.97;;;42.80;;
8397;SDS011;4236;54.504;9.588;2022-10-18T04:39:15;53.03;;;43.60;;
8397;SDS011;4236;54.504;9.588;2022-10-18T04:41:43;54.63;;;44.20;;
8397;SDS011;4236;54.504;9.588;2022-10-18T04:44:10;53.30;;;43.60;;
8397;SDS011;4236;54.504;9.588;2022-10-18T04:46:38;47.87;;;42.80;;
8397;SDS011;4236;54.504;9.588;2022-10-18T04:49:06;59.20;;;44.20;;
8397;SDS011;4236;54.504;9.588;2022-10-18T04:51:34;51.30;;;46.00;;
8397;SDS011;4236;54.504;9.588;2022-10-18T04:54:02;49.70;;;43.40;;
8397;SDS011;4236;54.504;9.588;2022-10-18T04:56:29;50.10;;;44.47;;
8397;SDS011;4236;54.504;9.588;2022-10-18T04:58:58;49.40;;;44.03;;
8397;SDS011;4236;54.504;9.588;2022-10-18T05:01:25;52.77;;;44.40;;
8397;SDS011;4236;54.504;9.588;2022-10-18T05:03:53;48.40;;;43.30;;
8397;SDS011;4236;54.504;9.588;2022-10-18T05:06:22;48.83;;;43.97;;
8397;SDS011;4236;54.504;9.588;2022-10-18T05:08:50;71.30;;;47.00;;
8397;SDS011;4236;54.504;9.588;2022-10-18T05:11:17;53.73;;;47.70;;
8397;SDS011;4236;54.504;9.588;2022-10-18T05:13:45;49.63;;;44.57;;
8397;SDS011;4236;54.504;9.588;2022-10-18T05:16:16;55.30;;;44.20;;
8397;SDS011;4236;54.504;9.588;2022-10-18T05:18:44;50.77;;;43.40;;
8397;SDS011;4236;54.504;9.588;2022-10-18T05:21:11;58.73;;;42.93;;
8397;SDS011;4236;54.504;9.588;2022-10-18T05:23:41;48.10;;;43.20;;
8397;SDS011;4236;54.504;9.588;2022-10-18T05:26:08;52.90;;;44.43;;
8397;SDS011;4236;54.504;9.588;2022-10-18T05:28:36;50.53;;;45.30;;
8397;SDS011;4236;54.504;9.588;2022-10-18T05:31:05;48.83;;;42.33;;
8397;SDS011;4236;54.504;9.588;2022-10-18T05:33:34;51.90;;;43.80;;
8397;SDS011;4236;54.504;9.588;2022-10-18T05:36:02;51.37;;;42.10;;
8397;SDS011;4236;54.504;9.588;2022-10-18T05:38:30;46.57;;;41.60;;
8397;SDS011;4236;54.504;9.588;2022-10-18T05:41:02;47.93;;;42.93;;
8397;SDS011;4236;54.504;9.588;2022-10-18T05:43:30;53.47;;;42.30;;
8397;SDS011;4236;54.504;9.588;2022-10-18T05:45:57;52.20;;;44.20;;
8397;SDS011;4236;54.504;9.588;2022-10-18T05:48:25;46.67;;;41.77;;
8397;SDS011;4236;54.504;9.588;2022-10-18T05:50:53;48.33;;;43.20;;
8397;SDS011;4236;54.504;9.588;2022-10-18T05:53:20;50.50;;;42.80;;
8397;SDS011;4236;54.504;9.588;2022-10-18T05:56:03;47.20;;;42.03;;
8397;SDS011;4236;54.504;9.588;2022-10-18T05:58:32;52.90;;;43.67;;
8397;SDS011;4236;54.504;9.588;2022-10-18T06:01:00;49.33;;;43.17;;
8397;SDS011;4236;54.504;9.588;2022-10-18T06:03:28;47.37;;;42.33;;
8397;SDS011;4236;54.504;9.588;2022-10-18T06:05:59;53.80;;;42.00;;
8397;SDS011;4236;54.504;9.588;2022-10-18T06:08:27;45.97;;;41.03;;
8397;SDS011;4236;54.504;9.588;2022-10-18T06:10:55;52.23;;;41.77;;
8397;SDS011;4236;54.504;9.588;2022-10-18T06:13:24;47.10;;;41.87;;
8397;SDS011;4236;54.504;9.588;2022-10-18T06:15:56;46.00;;;41.20;;
8397;SDS011;4236;54.504;9.588;2022-10-18T06:18:23;52.77;;;41.80;;
8397;SDS011;4236;54.504;9.588;2022-10-18T06:20:54;46.00;;;41.33;;
8397;SDS011;4236;54.504;9.588;2022-10-18T06:23:23;44.20;;;39.80;;
8397;SDS011;4236;54.504;9.588;2022-10-18T06:25:50;44.03;;;39.47;;
8397;SDS011;4236;54.504;9.588;2022-10-18T06:28:18;45.30;;;40.40;;
8397;SDS011;4236;54.504;9.588;2022-10-18T06:30:47;44.77;;;40.00;;
8397;SDS011;4236;54.504;9.588;2022-10-18T06:33:15;41.43;;;37.90;;
8397;SDS011;4236;54.504;9.588;2022-10-18T06:35:42;44.00;;;39.87;;
8397;SDS011;4236;54.504;9.588;2022-10-18T06:38:10;45.67;;;40.87;;
8397;SDS011;4236;54.504;9.588;2022-10-18T06:40:37;44.70;;;39.97;;
8397;SDS011;4236;54.504;9.588;2022-10-18T06:43:05;47.33;;;42.10;;
8397;SDS011;4236;54.504;9.588;2022-10-18T06:45:46;46.20;;;41.27;;
8397;SDS011;4236;54.504;9.588;2022-10-18T06:48:15;48.40;;;42.30;;
8397;SDS011;4236;54.504;9.588;2022-10-18T06:50:52;45.57;;;41.40;;
8397;SDS011;4236;54.504;9.588;2022-10-18T06:53:21;45.43;;;40.87;;
8397;SDS011;4236;54.504;9.588;2022-10-18T06:55:49;45.67;;;40.87;;
8397;SDS011;4236;54.504;9.588;2022-10-18T06:58:17;44.83;;;40.30;;
8397;SDS011;4236;54.504;9.588;2022-10-18T07:00:45;47.37;;;41.30;;
8397;SDS011;4236;54.504;9.588;2022-10-18T07:03:14;44.87;;;40.43;;
8397;SDS011;4236;54.504;9.588;2022-10-18T07:05:42;46.33;;;41.07;;
8397;SDS011;4236;54.504;9.588;2022-10-18T07:08:09;45.67;;;41.00;;
8397;SDS011;4236;54.504;9.588;2022-10-18T07:10:37;53.60;;;41.17;;
8397;SDS011;4236;54.504;9.588;2022-10-18T07:13:05;43.90;;;39.80;;
8397;SDS011;4236;54.504;9.588;2022-10-18T07:15:59;43.80;;;39.73;;
8397;SDS011;4236;54.504;9.588;2022-10-18T07:18:29;45.87;;;40.27;;
8397;SDS011;4236;54.504;9.588;2022-10-18T07:20:59;43.80;;;39.60;;
8397;SDS011;4236;54.504;9.588;2022-10-18T07:23:27;44.90;;;40.40;;
8397;SDS011;4236;54.504;9.588;2022-10-18T07:25:55;41.30;;;37.30;;
8397;SDS011;4236;54.504;9.588;2022-10-18T07:28:22;42.90;;;38.53;;
8397;SDS011;4236;54.504;9.588;2022-10-18T07:30:50;43.53;;;39.47;;
8397;SDS011;4236;54.504;9.588;2022-10-18T07:33:17;45.13;;;39.50;;
8397;SDS011;4236;54.504;9.588;2022-10-18T07:35:47;44.23;;;39.20;;
8397;SDS011;4236;54.504;9.588;2022-10-18T07:38:14;42.37;;;38.43;;
8397;SDS011;4236;54.504;9.588;2022-10-18T07:40:42;50.40;;;40.60;;
8397;SDS011;4236;54.504;9.588;2022-10-18T07:43:10;49.80;;;39.97;;
8397;SDS011;4236;54.504;9.588;2022-10-18T07:45:37;43.47;;;39.07;;
8397;SDS011;4236;54.504;9.588;2022-10-18T07:48:05;43.80;;;39.07;;
8397;SDS011;4236;54.504;9.588;2022-10-18T07:50:33;46.10;;;39.60;;
8397;SDS011;4236;54.504;9.588;2022-10-18T07:53:02;47.70;;;39.47;;
8397;SDS011;4236;54.504;9.588;2022-10-18T07:55:29;43.00;;;39.07;;
8397;SDS011;4236;54.504;9.588;2022-10-18T07:57:58;43.10;;;39.03;;
8397;SDS011;4236;54.504;9.588;2022-10-18T08:00:26;45.27;;;38.50;;
8397;SDS011;4236;54.504;9.588;2022-10-18T08:02:54;45.83;;;41.40;;
8397;SDS011;4236;54.504;9.588;2022-10-18T08:05:22;43.27;;;38.97;;
8397;SDS011;4236;54.504;9.588;2022-10-18T08:07:50;40.97;;;36.93;;
8397;SDS011;4236;54.504;9.588;2022-10-18T08:10:19;42.23;;;38.00;;
8397;SDS011;4236;54.504;9.588;2022-10-18T08:12:47;42.50;;;38.17;;
8397;SDS011;4236;54.504;9.588;2022-10-18T08:15:15;46.37;;;41.53;;
8397;SDS011;4236;54.504;9.588;2022-10-18T08:17:43;43.63;;;39.60;;
8397;SDS011;4236;54.504;9.588;2022-10-18T08:20:11;44.07;;;39.97;;
8397;SDS011;4236;54.504;9.588;2022-10-18T08:22:56;45.27;;;40.87;;
8397;SDS011;4236;54.504;9.588;2022-10-18T08:25:27;42.33;;;38.37;;
8397;SDS011;4236;54.504;9.588;2022-10-18T08:27:55;43.17;;;39.40;;
8397;SDS011;4236;54.504;9.588;2022-10-18T08:30:23;42.23;;;38.30;;
8397;SDS011;4236;54.504;9.588;2022-10-18T08:32:50;41.43;;;37.70;;
8397;SDS011;4236;54.504;9.588;2022-10-18T08:35:18;44.03;;;39.43;;
8397;SDS011;4236;54.504;9.588;2022-10-18T08:37:46;42.30;;;38.13;;
8397;SDS011;4236;54.504;9.588;2022-10-18T08:40:14;42.27;;;38.07;;
8397;SDS011;4236;54.504;9.588;2022-10-18T08:42:46;40.40;;;36.80;;
8397;SDS011;4236;54.504;9.588;2022-10-18T08:45:25;41.87;;;37.57;;
8397;SDS011;4236;54.504;9.588;2022-10-18T08:48:09;43.00;;;38.40;;
8397;SDS011;4236;54.504;9.588;2022-10-18T08:50:47;40.43;;;36.70;;
8397;SDS011;4236;54.504;9.588;2022-10-18T08:53:17;42.83;;;38.33;;
8397;SDS011;4236;54.504;9.588;2022-10-18T08:55:49;43.57;;;39.10;;
8397;SDS011;4236;54.504;9.588;2022-10-18T08:58:22;40.33;;;37.03;;
8397;SDS011;4236;54.504;9.588;2022-10-18T09:00:55;43.10;;;38.57;;
8397;SDS011;4236;54.504;9.588;2022-10-18T09:03:32;41.00;;;37.50;;
8397;SDS011;4236;54.504;9.588;2022-10-18T09:06:15;42.80;;;39.00;;
8397;SDS011;4236;54.504;9.588;2022-10-18T09:08:52;41.00;;;37.53;;
8397;SDS011;4236;54.504;9.588;2022-10-18T09:11:39;40.53;;;36.77;;
8397;SDS011;4236;54.504;9.588;2022-10-18T09:17:19;39.57;;;36.43;;
8397;SDS011;4236;54.504;9.588;2022-10-18T09:20:00;41.27;;;36.97;;
8397;SDS011;4236;54.504;9.588;2022-10-18T09:22:38;38.70;;;35.23;;
8397;SDS011;4236;54.504;9.588;2022-10-18T09:25:19;39.20;;;35.20;;
8397;SDS011;4236;54.504;9.588;2022-10-18T09:27:52;43.03;;;39.13;;
8397;SDS011;4236;54.504;9.588;2022-10-18T09:30:37;37.30;;;34.40;;
8397;SDS011;4236;54.504;9.588;2022-10-18T09:33:27;39.37;;;36.17;;
8397;SDS011;4236;54.504;9.588;2022-10-18T09:36:02;35.93;;;33.20;;
8397;SDS011;4236;54.504;9.588;2022-10-18T09:38:32;36.67;;;33.80;;
8397;SDS011;4236;54.504;9.588;2022-10-18T09:41:06;36.33;;;33.30;;
8397;SDS011;4236;54.504;9.588;2022-10-18T09:43:42;35.13;;;32.10;;
8397;SDS011;4236;54.504;9.588;2022-10-18T09:46:15;34.20;;;31.60;;
8397;SDS011;4236;54.504;9.588;2022-10-18T09:48:48;33.67;;;31.27;;
8397;SDS011;4236;54.504;9.588;2022-10-18T09:51:19;34.97;;;32.40;;
8397;SDS011;4236;54.504;9.588;2022-10-18T09:53:55;34.20;;;31.63;;
8397;SDS011;4236;54.504;9.588;2022-10-18T09:56:29;36.07;;;32.93;;
8397;SDS011;4236;54.504;9.588;2022-10-18T09:59:09;34.23;;;31.20;;
8397;SDS011;4236;54.504;9.588;2022-10-18T10:01:56;35.40;;;32.73;;
8397;SDS011;4236;54.504;9.588;2022-10-18T10:04:24;34.10;;;31.90;;
8397;SDS011;4236;54.504;9.588;2022-10-18T10:06:53;31.97;;;30.07;;
8397;SDS011;4236;54.504;9.588;2022-10-18T10:09:24;32.50;;;29.73;;
8397;SDS011;4236;54.504;9.588;2022-10-18T10:11:54;30.60;;;28.60;;
8397;SDS011;4236;54.504;9.588;2022-10-18T10:14:23;31.43;;;28.70;;
8397;SDS011;4236;54.504;9.588;2022-10-18T10:16:53;30.43;;;28.53;;
8397;SDS011;4236;54.504;9.588;2022-10-18T10:19:25;29.60;;;27.70;;
8397;SDS011;4236;54.504;9.588;2022-10-18T10:22:04;29.23;;;27.27;;
8397;SDS011;4236;54.504;9.588;2022-10-18T10:24:36;30.37;;;28.00;;
8397;SDS011;4236;54.504;9.588;2022-10-18T10:27:14;31.83;;;29.03;;
8397;SDS011;4236;54.504;9.588;2022-10-18T10:29:46;30.43;;;28.00;;
8397;SDS011;4236;54.504;9.588;2022-10-18T10:32:18;31.00;;;28.70;;
8397;SDS011;4236;54.504;9.588;2022-10-18T10:34:48;30.33;;;27.80;;
8397;SDS011;4236;54.504;9.588;2022-10-18T10:37:26;28.17;;;26.40;;
8397;SDS011;4236;54.504;9.588;2022-10-18T10:42:55;28.80;;;26.60;;
8397;SDS011;4236;54.504;9.588;2022-10-18T10:45:55;29.17;;;26.60;;
8397;SDS011;4236;54.504;9.588;2022-10-18T10:48:26;28.83;;;26.93;;
8397;SDS011;4236;54.504;9.588;2022-10-18T10:51:01;28.30;;;26.20;;
8397;SDS011;4236;54.504;9.588;2022-10-18T10:53:42;28.13;;;26.20;;
8397;SDS011;4236;54.504;9.588;2022-10-18T10:56:16;27.07;;;24.60;;
8397;SDS011;4236;54.504;9.588;2022-10-18T10:58:47;23.60;;;21.70;;
8397;SDS011;4236;54.504;9.588;2022-10-18T11:01:18;24.87;;;23.37;;
8397;SDS011;4236;54.504;9.588;2022-10-18T11:03:57;27.37;;;24.93;;
8397;SDS011;4236;54.504;9.588;2022-10-18T11:09:26;25.90;;;23.50;;
8397;SDS011;4236;54.504;9.588;2022-10-18T11:12:01;25.43;;;23.60;;
8397;SDS011;4236;54.504;9.588;2022-10-18T11:14:48;24.90;;;23.13;;
8397;SDS011;4236;54.504;9.588;2022-10-18T11:17:21;24.27;;;22.80;;
8397;SDS011;4236;54.504;9.588;2022-10-18T11:20:09;25.50;;;23.40;;
8397;SDS011;4236;54.504;9.588;2022-10-18T11:22:47;25.20;;;23.40;;
8397;SDS011;4236;54.504;9.588;2022-10-18T11:25:24;23.30;;;21.83;;
8397;SDS011;4236;54.504;9.588;2022-10-18T11:28:01;22.50;;;21.20;;
8397;SDS011;4236;54.504;9.588;2022-10-18T11:30:36;22.90;;;21.10;;
8397;SDS011;4236;54.504;9.588;2022-10-18T11:33:18;22.97;;;20.87;;
8397;SDS011;4236;54.504;9.588;2022-10-18T11:36:03;22.10;;;20.10;;
8397;SDS011;4236;54.504;9.588;2022-10-18T11:38:39;20.77;;;19.20;;
8397;SDS011;4236;54.504;9.588;2022-10-18T11:41:18;20.30;;;18.43;;
8397;SDS011;4236;54.504;9.588;2022-10-18T11:43:53;18.10;;;16.80;;
8397;SDS011;4236;54.504;9.588;2022-10-18T11:46:34;18.60;;;17.30;;
8397;SDS011;4236;54.504;9.588;2022-10-18T11:49:17;21.63;;;17.23;;
8397;SDS011;4236;54.504;9.588;2022-10-18T11:51:56;19.17;;;17.47;;
8397;SDS011;4236;54.504;9.588;2022-10-18T11:57:34;17.50;;;14.93;;
8397;SDS011;4236;54.504;9.588;2022-10-18T12:00:22;19.00;;;15.30;;
8397;SDS011;4236;54.504;9.588;2022-10-18T12:03:14;16.00;;;14.90;;
8397;SDS011;4236;54.504;9.588;2022-10-18T12:05:48;14.83;;;13.93;;
8397;SDS011;4236;54.504;9.588;2022-10-18T12:08:19;17.60;;;14.53;;
8397;SDS011;4236;54.504;9.588;2022-10-18T12:10:54;14.90;;;13.60;;
8397;SDS011;4236;54.504;9.588;2022-10-18T12:13:32;15.50;;;13.87;;
8397;SDS011;4236;54.504;9.588;2022-10-18T12:16:03;15.57;;;14.27;;
8397;SDS011;4236;54.504;9.588;2022-10-18T12:18:33;15.13;;;13.70;;
8397;SDS011;4236;54.504;9.588;2022-10-18T12:21:07;15.53;;;13.40;;
8397;SDS011;4236;54.504;9.588;2022-10-18T12:23:37;14.80;;;13.50;;
8397;SDS011;4236;54.504;9.588;2022-10-18T12:26:13;13.80;;;12.53;;
8397;SDS011;4236;54.504;9.588;2022-10-18T12:28:43;15.43;;;13.87;;
8397;SDS011;4236;54.504;9.588;2022-10-18T12:31:21;14.33;;;13.00;;
8397;SDS011;4236;54.504;9.588;2022-10-18T12:33:53;14.93;;;13.73;;
8397;SDS011;4236;54.504;9.588;2022-10-18T12:36:28;15.63;;;12.70;;
8397;SDS011;4236;54.504;9.588;2022-10-18T12:39:15;17.67;;;13.00;;
8397;SDS011;4236;54.504;9.588;2022-10-18T12:42:15;12.67;;;11.67;;
8397;SDS011;4236;54.504;9.588;2022-10-18T12:44:45;14.03;;;12.93;;
8397;SDS011;4236;54.504;9.588;2022-10-18T12:47:19;14.23;;;12.73;;
8397;SDS011;4236;54.504;9.588;2022-10-18T12:49:54;14.70;;;13.17;;
8397;SDS011;4236;54.504;9.588;2022-10-18T12:52:23;14.80;;;12.50;;
8397;SDS011;4236;54.504;9.588;2022-10-18T12:55:01;17.10;;;13.87;;
8397;SDS011;4236;54.504;9.588;2022-10-18T13:09:29;16.77;;;12.80;;
8397;SDS011;4236;54.504;9.588;2022-10-18T13:12:00;17.30;;;12.10;;
8397;SDS011;4236;54.504;9.588;2022-10-18T13:15:34;14.23;;;11.73;;
8397;SDS011;4236;54.504;9.588;2022-10-18T13:18:13;13.70;;;12.27;;
8397;SDS011;4236;54.504;9.588;2022-10-18T13:20:52;19.20;;;12.83;;
8397;SDS011;4236;54.504;9.588;2022-10-18T13:23:30;12.57;;;11.50;;
8397;SDS011;4236;54.504;9.588;2022-10-18T13:26:10;17.30;;;13.10;;
8397;SDS011;4236;54.504;9.588;2022-10-18T13:28:48;13.30;;;12.10;;
8397;SDS011;4236;54.504;9.588;2022-10-18T13:31:27;12.47;;;11.30;;
8397;SDS011;4236;54.504;9.588;2022-10-18T13:36:58;13.43;;;11.60;;
8397;SDS011;4236;54.504;9.588;2022-10-18T13:39:27;12.63;;;11.53;;
8397;SDS011;4236;54.504;9.588;2022-10-18T13:44:53;12.23;;;11.33;;
8397;SDS011;4236;54.504;9.588;2022-10-18T13:47:35;13.77;;;11.97;;
8397;SDS011;4236;54.504;9.588;2022-10-18T13:50:14;12.70;;;11.30;;
8397;SDS011;4236;54.504;9.588;2022-10-18T13:53:03;13.33;;;11.80;;
8397;SDS011;4236;54.504;9.588;2022-10-18T13:56:03;12.53;;;11.30;;
8397;SDS011;4236;54.504;9.588;2022-10-18T13:58:55;12.57;;;11.50;;
8397;SDS011;4236;54.504;9.588;2022-10-18T14:01:44;12.63;;;11.33;;
8397;SDS011;4236;54.504;9.588;2022-10-18T14:04:25;12.97;;;11.60;;
8397;SDS011;4236;54.504;9.588;2022-10-18T14:07:04;19.90;;;12.27;;
8397;SDS011;4236;54.504;9.588;2022-10-18T14:09:34;11.87;;;10.83;;
8397;SDS011;4236;54.504;9.588;2022-10-18T14:12:13;12.17;;;11.13;;
8397;SDS011;4236;54.504;9.588;2022-10-18T14:14:50;12.13;;;10.97;;
8397;SDS011;4236;54.504;9.588;2022-10-18T14:17:25;12.67;;;11.47;;
8397;SDS011;4236;54.504;9.588;2022-10-18T14:20:00;11.50;;;10.63;;
8397;SDS011;4236;54.504;9.588;2022-10-18T14:22:40;11.87;;;10.80;;
8397;SDS011;4236;54.504;9.588;2022-10-18T14:25:19;11.73;;;10.93;;
8397;SDS011;4236;54.504;9.588;2022-10-18T14:28:01;11.73;;;10.60;;
8397;SDS011;4236;54.504;9.588;2022-10-18T14:30:48;12.00;;;10.70;;
8397;SDS011;4236;54.504;9.588;2022-10-18T14:33:29;12.00;;;10.37;;
8397;SDS011;4236;54.504;9.588;2022-10-18T14:36:03;12.57;;;10.53;;
8397;SDS011;4236;54.504;9.588;2022-10-18T14:38:43;11.77;;;10.73;;
8397;SDS011;4236;54.504;9.588;2022-10-18T14:41:14;12.73;;;11.67;;
8397;SDS011;4236;54.504;9.588;2022-10-18T14:43:43;11.70;;;10.60;;
8397;SDS011;4236;54.504;9.588;2022-10-18T14:46:19;11.00;;;10.03;;
8397;SDS011;4236;54.504;9.588;2022-10-18T14:48:54;10.50;;;9.47;;
8397;SDS011;4236;54.504;9.588;2022-10-18T14:51:25;10.87;;;10.10;;
8397;SDS011;4236;54.504;9.588;2022-10-18T14:53:54;11.40;;;10.50;;
8397;SDS011;4236;54.504;9.588;2022-10-18T14:56:23;15.53;;;10.90;;
8397;SDS011;4236;54.504;9.588;2022-10-18T14:58:53;12.20;;;11.40;;
8397;SDS011;4236;54.504;9.588;2022-10-18T15:01:23;11.83;;;10.80;;
8397;SDS011;4236;54.504;9.588;2022-10-18T15:03:56;12.43;;;11.30;;
8397;SDS011;4236;54.504;9.588;2022-10-18T15:06:26;12.10;;;11.10;;
8397;SDS011;4236;54.504;9.588;2022-10-18T15:08:54;15.13;;;11.93;;
8397;SDS011;4236;54.504;9.588;2022-10-18T15:11:23;11.90;;;10.97;;
8397;SDS011;4236;54.504;9.588;2022-10-18T15:13:53;11.40;;;10.33;;
8397;SDS011;4236;54.504;9.588;2022-10-18T15:16:22;12.17;;;10.70;;
8397;SDS011;4236;54.504;9.588;2022-10-18T15:19:00;10.97;;;10.13;;
8397;SDS011;4236;54.504;9.588;2022-10-18T15:21:31;18.20;;;11.40;;
8397;SDS011;4236;54.504;9.588;2022-10-18T15:26:47;12.57;;;10.97;;
8397;SDS011;4236;54.504;9.588;2022-10-18T15:29:16;12.07;;;11.00;;
8397;SDS011;4236;54.504;9.588;2022-10-18T15:31:45;11.40;;;10.40;;
8397;SDS011;4236;54.504;9.588;2022-10-18T15:34:15;11.40;;;10.70;;
8397;SDS011;4236;54.504;9.588;2022-10-18T15:36:47;12.13;;;11.23;;
8397;SDS011;4236;54.504;9.588;2022-10-18T15:39:16;12.57;;;11.13;;
8397;SDS011;4236;54.504;9.588;2022-10-18T15:41:47;14.20;;;10.97;;
8397;SDS011;4236;54.504;9.588;2022-10-18T15:44:22;11.57;;;10.67;;
8397;SDS011;4236;54.504;9.588;2022-10-18T15:46:53;11.80;;;10.83;;
8397;SDS011;4236;54.504;9.588;2022-10-18T15:49:46;12.03;;;11.03;;
8397;SDS011;4236;54.504;9.588;2022-10-18T15:52:29;12.93;;;11.63;;
8397;SDS011;4236;54.504;9.588;2022-10-18T15:58:17;14.33;;;13.23;;